2022年5月22日

时间 代码 天气 温度 能见度 乌云 METAR/SPECI
07:55
V
13 °C 10 km+ - 210°   210° 13 kt METAR EHMG 220555Z AUTO 21013KT 9999 NCD 13/11 Q1017
07:25
V
13 °C 10 km+ - 200°   200° 12 kt METAR EHMG 220525Z AUTO 20012KT 9999 NCD 13/11 Q1017
06:55
V
13 °C 10 km+ - 200°   200° 12 kt METAR EHMG 220455Z AUTO 20012KT 9999 NSC 13/10 Q1017
06:25
V
13 °C 10 km+ - 210°   210° 11 kt METAR EHMG 220425Z AUTO 21011KT 9999 SCT048/// 13/10 Q1017
05:55
V
13 °C 10 km+ - 210°   210° 10 kt METAR EHMG 220355Z AUTO 21010KT 9999 NSC 13/09 Q1017
05:25
V
12 °C 10 km+ - 210°   210° 7 kt METAR EHMG 220325Z AUTO 21007KT 9999 NSC 12/09 Q1018
04:55
V
13 °C 10 km+ - 210°   210° 9 kt METAR EHMG 220255Z AUTO 21009KT 9999 NSC 13/09 Q1018
04:25
V
13 °C 10 km+ - 220°   220° 9 kt METAR EHMG 220225Z AUTO 22009KT 9999 NSC 13/08 Q1018
03:55
V
12 °C 10 km+ - 230°   230° 8 kt METAR EHMG 220155Z AUTO 23008KT 9999 NSC 12/09 Q1018
03:25
V
12 °C 10 km+ - 230°   230° 7 kt METAR EHMG 220125Z AUTO 23007KT 9999 NSC 12/09 Q1019
02:55
V
12 °C 10 km+ - 230°   230° 8 kt METAR EHMG 220055Z AUTO 23008KT 9999 NSC 12/09 Q1018
02:25
V
12 °C 10 km+ - 230°   230° 7 kt METAR EHMG 220025Z AUTO 23007KT 9999 NSC 12/09 Q1019
01:55
V
12 °C 10 km+ - 230°   230° 6 kt METAR EHMG 212355Z AUTO 23006KT 9999 NSC 12/10 Q1019
01:25
V
12 °C 10 km+ - 240°   240° 8 kt METAR EHMG 212325Z AUTO 24008KT 9999 NSC 12/10 Q1019
00:55
V
12 °C 10 km+ - 230°   230° 7 kt METAR EHMG 212255Z AUTO 23007KT 9999 NSC 12/10 Q1019
00:25
V
12 °C 10 km+ - 230°   230° 9 kt METAR EHMG 212225Z AUTO 23009KT 9999 NSC 12/09 Q1019

2022年5月21日

时间 代码 天气 温度 能见度 乌云 METAR/SPECI
23:55
V
12 °C 10 km+ - 230°   230° 9 kt METAR EHMG 212155Z AUTO 23009KT 9999 NSC 12/09 Q1019
23:25
V
12 °C 10 km+ - 230°   230° 8 kt METAR EHMG 212125Z AUTO 23008KT 9999 NSC 12/09 Q1020
22:55
V
12 °C 10 km+ - 230°   230° 7 kt METAR EHMG 212055Z AUTO 23007KT 9999 NSC 12/09 Q1020
22:25
V
12 °C 10 km+ - 240°   240° 9 kt METAR EHMG 212025Z AUTO 24009KT 9999 NSC 12/09 Q1020
21:55
V
12 °C 10 km+ - 240°   240° 8 kt METAR EHMG 211955Z AUTO 24008KT 9999 NSC 12/09 Q1020
21:25
V
12 °C 10 km+ - 250°   250° 6 kt METAR EHMG 211925Z AUTO 25006KT 9999 NSC 12/09 Q1020
20:55
V
12 °C 10 km+ - 250°   250° 7 kt METAR EHMG 211855Z AUTO 25007KT 9999 NSC 12/10 Q1020
20:25
V
12 °C 10 km+ - 260°   260° 10 kt METAR EHMG 211825Z AUTO 26010KT 9999 NSC 12/10 Q1020
19:55
V
12 °C 10 km+ - 260°   260° 10 kt METAR EHMG 211755Z AUTO 26010KT 9999 NSC 12/10 Q1020
19:25
V
12 °C 10 km+ - 260°   260° 10 kt METAR EHMG 211725Z AUTO 26010KT 9999 NSC 12/09 Q1020
18:55
V
12 °C 10 km+ - 260°   260° 11 kt METAR EHMG 211655Z AUTO 26011KT 9999 NSC 12/09 Q1020
18:25
V
12 °C 10 km+ - 270°   270° 12 kt METAR EHMG 211625Z AUTO 27012KT 9999 NSC 12/09 Q1020
17:55
V
12 °C 10 km+ - 270°   270° 12 kt METAR EHMG 211555Z AUTO 27012KT 9999 NSC 12/09 Q1021
17:25
V
12 °C 10 km+ - 270°   270° 12 kt METAR EHMG 211525Z AUTO 27012KT 9999 NSC 12/09 Q1020
16:55
V
12 °C 10 km+ - 270°   270° 13 kt METAR EHMG 211455Z AUTO 27013KT 9999 NSC 12/09 Q1020
16:25
V
12 °C 10 km+ - 270°   270° 15 kt METAR EHMG 211425Z AUTO 27015KT 9999 NSC 12/09 Q1020
15:55
V
12 °C 10 km+ - 270°   270° 15 kt METAR EHMG 211355Z AUTO 27015KT 9999 NSC 12/09 Q1021
15:25
V
12 °C 10 km+ - 270°   270° 16 kt METAR EHMG 211325Z AUTO 27016KT 9999 NSC 12/09 Q1020
14:55
V
12 °C 10 km+ - 260°   260° 16 kt METAR EHMG 211255Z AUTO 26016KT 9999 NSC 12/09 Q1020
14:25
V
12 °C 10 km+ - 270°   270° 16 kt METAR EHMG 211225Z AUTO 27016KT 9999 NSC 12/09 Q1020
13:55
V
12 °C 10 km+ - 260°   260° 17 kt METAR EHMG 211155Z AUTO 26017KT 9999 NSC 12/10 Q1020
13:25
V
12 °C 10 km+ - 260°   260° 17 kt METAR EHMG 211125Z AUTO 26017KT 9999 NSC 12/10 Q1020
12:55
V
12 °C 10 km+ - 260°   260° 18 kt METAR EHMG 211055Z AUTO 26018KT 9999 NSC 12/10 Q1020
12:25
V
12 °C 10 km+ - 270°   270° 18 kt METAR EHMG 211025Z AUTO 27018KT 9999 NSC 12/09 Q1019
11:55
V
12 °C 10 km+ - 260°   260° 20 kt METAR EHMG 210955Z AUTO 26020KT 9999 NCD 12/10 Q1019
11:25
V
12 °C 10 km+ - 270°   270° 20 kt METAR EHMG 210925Z AUTO 27020KT 9999 NCD 12/10 Q1019
10:55
V
12 °C 10 km+ - 270°   270° 19 kt METAR EHMG 210855Z AUTO 27019KT 9999 NCD 12/10 Q1019
10:25
V
12 °C 10 km+ - 270°   270° 19 kt METAR EHMG 210825Z AUTO 27019KT 9999 NCD 12/10 Q1018
09:55
V
12 °C 10 km+ - 270°   270° 22 kt METAR EHMG 210755Z AUTO 27022KT 9999 NCD 12/10 Q1018
09:25
V
12 °C 10 km+ - 270°   270° 21 kt METAR EHMG 210725Z AUTO 27021KT 9999 NCD 12/10 Q1018
08:55
V
12 °C 10 km+ - 260°   260° 22 kt METAR EHMG 210655Z AUTO 26022KT 9999 NCD 12/10 Q1017
08:25
V
12 °C 10 km+ - 270°   270° 21 kt METAR EHMG 210625Z AUTO 27021KT 9999 NCD 12/10 Q1017
07:55
V
12 °C 10 km+ - 260°   260° 21 kt METAR EHMG 210555Z AUTO 26021KT 9999 NCD 12/10 Q1016
07:25
V
12 °C 10 km+ - 270°   270° 21 kt METAR EHMG 210525Z AUTO 27021KT 9999 FEW011 12/10 Q1016
06:55
V
12 °C 10 km+ - 260°   260° 23 kt METAR EHMG 210455Z AUTO 26023KT 9999 FEW011 12/10 Q1016
06:25
V
13 °C 10 km+ - 270°   270° 24 kt METAR EHMG 210425Z AUTO 27024KT 9999 FEW012 13/10 Q1016
05:55
V
13 °C 10 km+ - 260°   260° 25 kt METAR EHMG 210355Z AUTO 26025KT 9999 FEW012 13/10 Q1015
05:25
V
13 °C 10 km+ - 260°   260° 24 kt METAR EHMG 210325Z AUTO 26024KT 9999 NSC 13/10 Q1015
04:55
V
13 °C 10 km+ - 260°   260° 26 kt METAR EHMG 210255Z AUTO 26026KT 9999 NCD 13/10 Q1015
04:25
V
13 °C 10 km+ - 250°   250° 29 kt METAR EHMG 210225Z AUTO 25029KT 9999 FEW028 13/10 Q1015
03:55
V
13 °C 10 km+ - 250°   250° 31 kt METAR EHMG 210155Z AUTO 25031KT 9999 FEW028 13/11 Q1015
03:25
V
13 °C 10 km+ - 240°   240° 28 kt METAR EHMG 210125Z AUTO 24028KT 9999 FEW024 13/11 Q1015
02:55
V
13 °C 10 km+ 4.800 ft 230°   230° 28 kt METAR EHMG 210055Z AUTO 23028KT 9999 FEW015CB SCT032 BKN048 13/11 Q1015
02:25
V
13 °C 8 km 4.200 ft 230°   230° 29 kt METAR EHMG 210025Z AUTO 23029KT 8000 DZRA FEW025/// BKN042/// BKN046/// 13/11 Q1015
01:55
V
13 °C 10 km+ - 230°   230° 31 kt METAR EHMG 202355Z AUTO 23031KT 9999 SCT042 SCT047 13/11 Q1014
01:25
V
13 °C 10 km+ - 220°   220° 29 kt METAR EHMG 202325Z AUTO 22029KT 9999 FEW046 13/10 Q1015
00:55
V
12 °C 10 km+ - 230°   230° 27 kt METAR EHMG 202255Z AUTO 23027KT 9999 FEW046 12/10 Q1016
00:25
V
12 °C 10 km+ - 230°   230° 24 kt METAR EHMG 202225Z AUTO 23024KT 9999 FEW036 12/09 Q1016

2022年5月20日

时间 代码 天气 温度 能见度 乌云 METAR/SPECI
23:55
V
12 °C 10 km+ - 230°   230° 20 kt METAR EHMG 202155Z AUTO 23020KT 9999 FEW036 SCT046 12/09 Q1016
23:25
V
12 °C 10 km+ - 240°   240° 18 kt METAR EHMG 202125Z AUTO 24018KT 9999 NSC 12/09 Q1016
22:55
V
12 °C 10 km+ - 250°   250° 18 kt METAR EHMG 202055Z AUTO 25018KT 9999 NSC 12/09 Q1016
22:25
V
11 °C 10 km+ - 260°   260° 17 kt METAR EHMG 202025Z AUTO 26017KT 9999 NSC 11/09 Q1016
21:55
V
12 °C 10 km+ - 260°   260° 17 kt METAR EHMG 201955Z AUTO 26017KT 9999 NCD 12/08 Q1016
21:25
V
11 °C 10 km+ - 270°   270° 12 kt METAR EHMG 201925Z AUTO 27012KT 9999 FEW038 SCT046 11/08 Q1015
20:55
V
11 °C 10 km+ - Var   Var 11 kt METAR EHMG 201855Z AUTO VRB11KT 9999 FEW005 SCT014 11/08 Q1015 REDZ
20:25
M
11 °C 10 km+ 1.100 ft Var   Var 19 kt METAR EHMG 201825Z AUTO VRB19KT 9999 FEW005 SCT006 BKN011 11/09 Q1015 REDZ
19:55
M
11 °C 5 km 1.700 ft Var   Var 21 kt METAR EHMG 201755Z AUTO VRB21KT 5000 -RA FEW005 SCT008 BKN017 11/09 Q1015
19:25
I
11 °C 4,6 km 1.200 ft 270°   270° 16 kt METAR EHMG 201725Z AUTO 27016KT 4600 -SHRA FEW007 BKN012 OVC015 11/10 Q1014
18:55
M
11 °C 10 km+ 1.000 ft 300°   300° 11 kt METAR EHMG 201655Z AUTO 30011KT 260V330 9999 -RA FEW004 SCT009 BKN010 11/08 Q1014 RERA REDZ
18:25
M
11 °C 8 km 2.300 ft 290°   290° 10 kt METAR EHMG 201625Z AUTO 29010KT 200V340 8000 -RA FEW004 SCT009 BKN023 11/09 Q1014
17:55
M
12 °C 6 km - 210°   210° 3 kt METAR EHMG 201555Z AUTO 21003KT 160V250 6000 -RA SCT021 12/11 Q1014
17:25
I
13 °C 4,3 km - 190°   190° 3 kt METAR EHMG 201525Z AUTO 19003KT 140V250 4300 -SHRA NSC 13/11 Q1014 RERA
16:55
M
13 °C 6 km - 130°   130° 2 kt METAR EHMG 201455Z AUTO 13002KT 6000 -SHRA FEW042 13/11 Q1015
16:25
I
13 °C 4,2 km - Var   Var 2 kt METAR EHMG 201425Z AUTO VRB02KT 4200 SHRA FEW042 13/11 Q1015
15:55
V
13 °C 8 km - 150°   150° 6 kt METAR EHMG 201355Z AUTO 15006KT 8000 -RA NSC 13/10 Q1016 RERA REDZ
15:25
V
14 °C 10 km+ - 130°   130° 4 kt METAR EHMG 201325Z AUTO 13004KT 9999 -DZ NSC 14/10 Q1015 REDZ
14:55
V
14 °C 10 km+ - 130°   130° 9 kt METAR EHMG 201255Z AUTO 13009KT 9999 -RA NSC 14/11 Q1015 RERA REDZ
14:25
V
14 °C 10 km+ - 140°   140° 10 kt METAR EHMG 201225Z AUTO 14010KT 9999 NSC 14/11 Q1016
13:55
V
14 °C 10 km+ - 120°   120° 10 kt METAR EHMG 201155Z AUTO 12010KT 9999 NSC 14/11 Q1016
13:25
V
14 °C 10 km+ - 160°   160° 13 kt METAR EHMG 201125Z AUTO 16013KT 9999 NSC 14/11 Q1017
12:55
V
14 °C 10 km+ - Var   Var 11 kt METAR EHMG 201055Z AUTO VRB11KT 9999 NSC 14/11 Q1018
12:25
V
13 °C 10 km+ - 150°   150° 11 kt METAR EHMG 201025Z AUTO 15011KT 9999 NSC 13/11 Q1018
11:55
V
13 °C 10 km+ - 150°   150° 11 kt METAR EHMG 200955Z AUTO 15011KT 9999 NSC 13/10 Q1019
11:25
V
13 °C 10 km+ - 140°   140° 9 kt METAR EHMG 200925Z AUTO 14009KT 9999 NSC 13/10 Q1019
10:55
V
13 °C 10 km+ - 160°   160° 11 kt METAR EHMG 200855Z AUTO 16011KT 9999 NSC 13/10 Q1020
10:25
V
13 °C 10 km+ - 140°   140° 9 kt METAR EHMG 200825Z AUTO 14009KT 9999 NSC 13/10 Q1020
09:55
V
13 °C 10 km+ - 150°   150° 8 kt METAR EHMG 200755Z AUTO 15008KT 9999 NSC 13/10 Q1020
09:25
V
12 °C 10 km+ - 160°   160° 7 kt METAR EHMG 200725Z AUTO 16007KT 9999 NSC 12/10 Q1020
08:55
V
12 °C 10 km+ - 140°   140° 6 kt METAR EHMG 200655Z AUTO 14006KT 9999 NSC 12/10 Q1020
08:25
V
12 °C 10 km+ - 150°   150° 3 kt METAR EHMG 200625Z AUTO 15003KT 9999 NSC 12/10 Q1020
07:55
V
12 °C 10 km+ - Var   Var 2 kt METAR EHMG 200555Z AUTO VRB02KT 9999 NSC 12/10 Q1021
07:25
V
12 °C 10 km+ - Var   Var 1 kt METAR EHMG 200525Z AUTO VRB01KT 9999 NSC 12/10 Q1021
06:55
V
12 °C 10 km+ - Var   Var 5 kt METAR EHMG 200455Z AUTO VRB05KT 9999 NSC 12/09 Q1021
06:25
V
12 °C 10 km+ - 280°   280° 3 kt METAR EHMG 200425Z AUTO 28003KT 220V020 9999 NSC 12/10 Q1021
05:55
V
12 °C 10 km+ - 250°   250° 5 kt METAR EHMG 200355Z AUTO 25005KT 9999 NSC 12/10 Q1021
05:25
V
12 °C 10 km+ - 260°   260° 7 kt METAR EHMG 200325Z AUTO 26007KT 9999 NSC 12/10 Q1021
04:55
V
12 °C 10 km+ - 260°   260° 7 kt METAR EHMG 200255Z AUTO 26007KT 9999 NSC 12/10 Q1021
04:25
V
12 °C 10 km+ - 270°   270° 7 kt METAR EHMG 200225Z AUTO 27007KT 9999 NSC 12/10 Q1021
较旧的数据

下载我们的应用程序

在您的手机和平板电脑上轻松访问所有航空天气。
有许多网站上没有的功能,如离线支持和个人机场列表。

Studio Eveline

Benalmádena
España

我们和第三方通过cookies跟踪您在我们网站上的上网行为。如果您继续,我们认为您同意我们的cookie政策。 了解更多